createdAt,value
2022-12-08T00:00:26.249Z,66.58
2022-12-08T00:03:08.665Z,64.32
2022-12-08T00:05:56.563Z,62.19
2022-12-08T00:08:54.655Z,60.48
2022-12-08T00:11:23.494Z,59.36
2022-12-08T00:13:52.398Z,59.77
2022-12-08T00:16:21.280Z,63.42
2022-12-08T00:18:50.215Z,64.20
2022-12-08T00:21:19.018Z,62.94
2022-12-08T00:23:47.695Z,62.31
2022-12-08T00:26:16.546Z,61.13
2022-12-08T00:28:45.461Z,60.28
2022-12-08T00:31:33.670Z,59.62
2022-12-08T00:34:11.056Z,58.92
2022-12-08T00:37:19.738Z,61.07
2022-12-08T00:40:02.807Z,64.40
2022-12-08T00:42:38.898Z,62.86
2022-12-08T00:45:14.590Z,60.93
2022-12-08T00:48:14.468Z,59.93
2022-12-08T00:50:43.289Z,59.57
2022-12-08T00:53:17.930Z,57.39
2022-12-08T00:56:12.346Z,58.95
2022-12-08T00:58:45.598Z,63.32
2022-12-08T01:01:19.798Z,63.56
2022-12-08T01:03:53.015Z,60.90
2022-12-08T01:06:29.563Z,59.35
2022-12-08T01:09:06.824Z,56.39
2022-12-08T01:11:42.016Z,61.45
2022-12-08T01:14:16.597Z,62.42
2022-12-08T01:16:50.899Z,61.67
2022-12-08T01:19:24.831Z,60.45
2022-12-08T01:22:03.720Z,55.85
2022-12-08T01:24:37.736Z,57.40
2022-12-08T01:27:08.360Z,62.76
2022-12-08T01:29:44.250Z,63.76
2022-12-08T01:32:13.960Z,62.83
2022-12-08T01:34:43.940Z,60.30
2022-12-08T01:37:12.973Z,58.35
2022-12-08T01:39:41.674Z,59.76
2022-12-08T01:42:22.734Z,64.18
2022-12-08T01:45:03.884Z,66.46
2022-12-08T01:47:43.942Z,62.52
2022-12-08T01:50:17.694Z,57.25
2022-12-08T01:53:05.231Z,58.18
2022-12-08T01:55:47.474Z,60.12
2022-12-08T01:58:23.593Z,63.85
2022-12-08T02:00:53.020Z,65.98
2022-12-08T02:03:35.794Z,59.64
2022-12-08T02:06:10.422Z,56.54
2022-12-08T02:08:46.034Z,58.54
2022-12-08T02:11:22.011Z,64.66
2022-12-08T02:13:57.810Z,67.80
2022-12-08T02:17:01.791Z,62.97
2022-12-08T02:20:15.937Z,56.36
2022-12-08T02:23:07.564Z,58.50
2022-12-08T02:26:08.317Z,59.12
2022-12-08T02:29:14.684Z,66.24
2022-12-08T02:32:08.991Z,67.43
2022-12-08T02:35:14.762Z,61.63
2022-12-08T02:38:08.994Z,56.10
2022-12-08T02:41:07.323Z,58.35
2022-12-08T02:43:51.545Z,59.09
2022-12-08T02:46:37.467Z,64.92
2022-12-08T02:49:11.178Z,65.14
2022-12-08T02:51:39.744Z,61.57
2022-12-08T02:54:15.929Z,60.45
2022-12-08T02:57:30.828Z,55.47
2022-12-08T03:00:23.566Z,55.30
2022-12-08T03:03:42.929Z,57.92
2022-12-08T03:07:05.285Z,60.13
2022-12-08T03:09:43.065Z,61.46
2022-12-08T03:12:52.846Z,66.23
2022-12-08T03:15:23.396Z,68.30
2022-12-08T03:17:58.468Z,64.39
2022-12-08T03:20:31.424Z,61.12
2022-12-08T03:23:05.332Z,55.95
2022-12-08T03:25:44.003Z,54.12
2022-12-08T03:28:13.229Z,56.47
2022-12-08T03:30:46.540Z,58.77
2022-12-08T03:33:30.725Z,60.35
2022-12-08T03:36:02.884Z,63.30
2022-12-08T03:38:41.031Z,67.03
2022-12-08T03:41:20.224Z,65.82
2022-12-08T03:44:01.212Z,59.29
2022-12-08T03:48:59.132Z,57.44
2022-12-08T03:51:28.294Z,58.26
2022-12-08T03:53:57.133Z,60.53
2022-12-08T03:56:36.688Z,61.20
2022-12-08T03:59:07.712Z,67.55
2022-12-08T04:01:37.017Z,69.09
2022-12-08T04:04:05.902Z,65.41
2022-12-08T04:06:34.696Z,61.63
2022-12-08T04:09:03.386Z,56.81
2022-12-08T04:11:32.022Z,55.20
2022-12-08T04:14:00.709Z,57.13
2022-12-08T04:16:29.474Z,59.20
2022-12-08T04:18:58.298Z,60.73
2022-12-08T04:21:27.118Z,65.35
2022-12-08T04:24:00.834Z,69.67
2022-12-08T04:26:30.133Z,63.74
2022-12-08T04:28:58.887Z,57.46
2022-12-08T04:31:27.711Z,54.28
2022-12-08T04:33:56.458Z,56.11
2022-12-08T04:36:25.301Z,58.08
2022-12-08T04:38:54.400Z,59.78
2022-12-08T04:41:23.112Z,61.07
2022-12-08T04:43:51.890Z,65.96
2022-12-08T04:46:20.779Z,67.85
2022-12-08T04:48:49.671Z,63.30
2022-12-08T04:51:20.704Z,58.26
2022-12-08T04:53:49.528Z,54.78
2022-12-08T04:56:20.114Z,56.20
2022-12-08T04:58:49.060Z,58.47
2022-12-08T05:01:18.166Z,60.22
2022-12-08T05:03:46.895Z,61.45
2022-12-08T05:06:16.031Z,66.44
2022-12-08T05:08:44.957Z,67.88
2022-12-08T05:11:14.527Z,65.00
2022-12-08T05:13:43.397Z,61.03
2022-12-08T05:16:16.040Z,56.84
2022-12-08T05:18:44.968Z,56.48
2022-12-08T05:21:13.633Z,58.50
2022-12-08T05:23:42.355Z,59.98
2022-12-08T05:26:11.093Z,61.31
2022-12-08T05:28:41.932Z,66.64
2022-12-08T05:31:16.630Z,69.63
2022-12-08T05:33:46.597Z,63.91
2022-12-08T05:36:16.885Z,60.84
2022-12-08T05:38:47.394Z,57.13
2022-12-08T05:41:20.468Z,56.54
2022-12-08T05:43:49.797Z,58.54
2022-12-08T05:46:18.678Z,60.27
2022-12-08T05:48:47.490Z,61.55
2022-12-08T05:51:24.437Z,66.50
2022-12-08T05:53:53.971Z,69.09
2022-12-08T05:56:24.095Z,65.72
2022-12-08T05:58:52.830Z,62.95
2022-12-08T06:01:27.852Z,61.57
2022-12-08T06:03:59.691Z,59.66
2022-12-08T06:06:29.732Z,55.77
2022-12-08T06:08:58.388Z,56.60
2022-12-08T06:11:31.371Z,58.87
2022-12-08T06:14:00.708Z,60.60
2022-12-08T06:16:30.184Z,61.64
2022-12-08T06:18:59.008Z,66.21
2022-12-08T06:21:27.767Z,70.23
2022-12-08T06:23:56.683Z,67.27
2022-12-08T06:26:25.814Z,62.87
2022-12-08T06:28:54.898Z,59.37
2022-12-08T06:31:26.582Z,55.04
2022-12-08T06:33:55.774Z,56.32
2022-12-08T06:36:27.409Z,58.57
2022-12-08T06:38:57.590Z,60.50
2022-12-08T06:41:26.651Z,61.96
2022-12-08T06:43:59.174Z,66.97
2022-12-08T06:46:27.973Z,70.58
2022-12-08T06:48:56.866Z,64.79
2022-12-08T06:51:25.892Z,60.11
2022-12-08T06:53:54.613Z,55.06
2022-12-08T06:56:28.244Z,55.02
2022-12-08T06:58:57.190Z,57.61
2022-12-08T07:01:26.021Z,59.55
2022-12-08T07:03:54.884Z,61.09
2022-12-08T07:06:25.577Z,65.04
2022-12-08T07:08:54.157Z,68.76
2022-12-08T07:11:22.978Z,65.22
2022-12-08T07:13:51.796Z,63.22
2022-12-08T07:16:20.569Z,62.99
2022-12-08T07:18:50.551Z,63.30
2022-12-08T07:21:19.518Z,62.99
2022-12-08T07:23:56.056Z,64.77
2022-12-08T07:26:27.282Z,63.40
2022-12-08T07:28:56.145Z,61.31
2022-12-08T07:31:26.487Z,57.99
2022-12-08T07:33:57.353Z,56.90
2022-12-08T07:36:26.514Z,61.69
2022-12-08T07:38:55.367Z,65.04
2022-12-08T07:41:26.747Z,64.45
2022-12-08T07:43:57.134Z,61.82
2022-12-08T07:46:27.018Z,60.37
2022-12-08T07:48:55.896Z,57.23
2022-12-08T07:51:25.584Z,56.71
2022-12-08T07:53:55.257Z,59.19
2022-12-08T07:56:24.896Z,64.74
2022-12-08T07:58:53.711Z,65.34
2022-12-08T08:01:23.809Z,62.34
2022-12-08T08:03:53.711Z,60.14
2022-12-08T08:06:23.050Z,56.36
2022-12-08T08:08:51.771Z,57.50
2022-12-08T08:11:21.807Z,62.84
2022-12-08T08:13:52.253Z,65.22
2022-12-08T08:16:21.592Z,62.41
2022-12-08T08:18:52.371Z,60.76
2022-12-08T08:21:45.003Z,59.83
2022-12-08T08:24:11.454Z,58.17
2022-12-08T08:26:40.270Z,61.81
2022-12-08T08:29:09.070Z,64.07
2022-12-08T08:31:37.709Z,62.61
2022-12-08T08:34:06.744Z,61.45
2022-12-08T08:36:36.351Z,58.84
2022-12-08T08:39:05.256Z,58.56
2022-12-08T08:41:35.692Z,60.27
2022-12-08T08:44:05.300Z,65.43
2022-12-08T08:46:34.260Z,64.74
2022-12-08T08:49:03.131Z,62.58
2022-12-08T08:51:31.831Z,59.99
2022-12-08T08:54:00.551Z,58.96
2022-12-08T08:56:29.251Z,61.74
2022-12-08T08:58:58.110Z,64.06
2022-12-08T09:01:28.953Z,62.89
2022-12-08T09:03:58.323Z,61.24
2022-12-08T09:06:28.752Z,60.32
2022-12-08T09:08:57.771Z,58.66
2022-12-08T09:11:26.595Z,60.65
2022-12-08T09:13:56.191Z,63.39
2022-12-08T09:16:25.228Z,62.66
2022-12-08T09:18:54.697Z,61.43
2022-12-08T09:21:27.077Z,59.54
2022-12-08T09:23:59.062Z,60.26
2022-12-08T09:26:30.702Z,63.20
2022-12-08T09:29:00.383Z,62.94
2022-12-08T09:31:29.176Z,61.19
2022-12-08T09:33:58.046Z,59.56
2022-12-08T09:36:27.069Z,59.76
2022-12-08T09:38:56.301Z,62.57
2022-12-08T09:41:40.660Z,62.98
2022-12-08T09:45:00.265Z,61.13
2022-12-08T09:47:38.146Z,59.36
2022-12-08T09:50:18.552Z,60.61
2022-12-08T09:53:17.385Z,62.86
2022-12-08T09:56:00.540Z,62.53
2022-12-08T09:59:24.221Z,59.20
2022-12-08T10:01:53.132Z,60.29
2022-12-08T10:04:32.717Z,63.38
2022-12-08T10:07:23.100Z,62.70
2022-12-08T10:10:26.348Z,60.11
2022-12-08T10:13:08.776Z,59.20
2022-12-08T10:15:50.197Z,62.31
2022-12-08T10:18:30.798Z,63.26
2022-12-08T10:21:16.990Z,61.58
2022-12-08T10:23:51.748Z,58.84
2022-12-08T10:26:22.827Z,58.49
2022-12-08T10:28:52.807Z,60.90
2022-12-08T10:31:25.533Z,63.05
2022-12-08T10:34:10.781Z,62.09
2022-12-08T10:36:58.619Z,59.61
2022-12-08T10:39:47.183Z,59.93
2022-12-08T10:42:15.988Z,62.85
2022-12-08T10:45:20.642Z,62.48
2022-12-08T10:48:26.043Z,59.68
2022-12-08T10:50:58.302Z,59.66
2022-12-08T10:53:29.728Z,62.52
2022-12-08T10:56:04.187Z,62.32
2022-12-08T10:58:36.126Z,59.33
2022-12-08T11:01:22.804Z,58.98
2022-12-08T11:04:01.156Z,62.33
2022-12-08T11:06:29.748Z,62.12
2022-12-08T11:09:07.939Z,59.36
2022-12-08T11:11:58.777Z,58.68
2022-12-08T11:14:32.589Z,61.49
2022-12-08T11:17:14.985Z,62.81
2022-12-08T11:20:01.529Z,59.92
2022-12-08T11:22:40.063Z,57.80
2022-12-08T11:25:08.745Z,60.45
2022-12-08T11:28:00.224Z,62.31
2022-12-08T11:30:37.373Z,62.39
2022-12-08T11:33:22.670Z,58.66
2022-12-08T11:36:15.445Z,58.15
2022-12-08T11:38:49.642Z,60.76
2022-12-08T11:41:29.450Z,62.56
2022-12-08T11:44:16.007Z,61.00
2022-12-08T11:46:54.402Z,56.97
2022-12-08T11:49:35.171Z,58.67
2022-12-08T11:52:12.461Z,60.72
2022-12-08T11:54:52.301Z,63.05
2022-12-08T11:57:24.742Z,59.96
2022-12-08T11:59:57.862Z,58.15
2022-12-08T12:02:36.201Z,59.81
2022-12-08T12:06:05.770Z,61.64
2022-12-08T12:09:01.183Z,61.16
2022-12-08T12:12:04.764Z,58.01
2022-12-08T12:14:53.304Z,59.21
2022-12-08T12:18:20.822Z,61.58
2022-12-08T12:21:10.762Z,61.83
2022-12-08T12:23:44.740Z,57.96
2022-12-08T12:26:59.021Z,57.00
2022-12-08T12:29:33.962Z,60.05
2022-12-08T12:32:07.842Z,62.35
2022-12-08T12:34:44.863Z,62.20
2022-12-08T12:37:36.924Z,57.89
2022-12-08T12:40:29.303Z,58.69
2022-12-08T12:42:57.861Z,61.28
2022-12-08T12:45:32.816Z,62.96
2022-12-08T12:48:01.639Z,60.70
2022-12-08T12:50:33.617Z,58.21
2022-12-08T12:53:17.682Z,60.03
2022-12-08T12:55:46.516Z,62.43
2022-12-08T12:58:37.705Z,62.36
2022-12-08T13:01:09.134Z,59.81
2022-12-08T13:04:07.783Z,57.24
2022-12-08T13:06:46.003Z,59.69
2022-12-08T13:09:35.488Z,62.53
2022-12-08T13:12:24.543Z,61.41
2022-12-08T13:15:03.066Z,57.74
2022-12-08T13:17:38.672Z,59.28
2022-12-08T13:20:23.356Z,61.96
2022-12-08T13:22:54.796Z,62.39
2022-12-08T13:25:47.767Z,59.54
2022-12-08T13:28:16.328Z,56.74
2022-12-08T13:30:57.954Z,59.06
2022-12-08T13:33:30.416Z,62.15
2022-12-08T13:36:13.775Z,62.63
2022-12-08T13:38:47.497Z,59.14
2022-12-08T13:41:24.787Z,58.71
2022-12-08T13:44:50.796Z,60.98
2022-12-08T13:47:32.200Z,63.18
2022-12-08T13:58:36.675Z,62.94
2022-12-08T14:01:05.847Z,60.78
2022-12-08T14:06:58.960Z,60.65
2022-12-08T14:09:38.421Z,62.82
2022-12-08T14:12:28.697Z,61.24
2022-12-08T14:15:06.549Z,58.14
2022-12-08T14:17:35.459Z,58.98
2022-12-08T14:20:13.414Z,59.31
2022-12-08T14:22:42.478Z,58.80
2022-12-08T14:25:17.037Z,61.01
2022-12-08T14:27:48.031Z,66.83
2022-12-08T14:30:26.487Z,67.76
2022-12-08T14:32:59.153Z,63.48
2022-12-08T14:35:37.021Z,58.40
2022-12-08T14:38:16.679Z,54.90
2022-12-08T14:41:05.937Z,55.98
2022-12-08T14:43:35.734Z,60.03
2022-12-08T14:46:20.641Z,63.39
2022-12-08T14:48:49.387Z,63.14
2022-12-08T14:51:23.837Z,58.46
2022-12-08T14:54:03.498Z,57.61
2022-12-08T14:56:39.530Z,59.26
2022-12-08T14:59:26.563Z,62.52
2022-12-08T15:02:25.897Z,58.46
2022-12-08T15:05:13.041Z,58.50
2022-12-08T15:07:56.083Z,63.35
2022-12-08T15:10:32.296Z,58.41
2022-12-08T15:13:22.306Z,58.41
2022-12-08T15:15:56.984Z,63.11
2022-12-08T15:18:39.776Z,58.49
2022-12-08T15:21:13.222Z,58.50
2022-12-08T15:23:50.250Z,63.29
2022-12-08T15:26:28.934Z,59.75
2022-12-08T15:29:17.404Z,59.04
2022-12-08T15:31:49.660Z,63.59
2022-12-08T15:34:21.853Z,59.06
2022-12-08T15:36:53.841Z,59.42
2022-12-08T15:39:38.779Z,63.50
2022-12-08T15:42:13.598Z,58.37
2022-12-08T15:44:43.595Z,59.74
2022-12-08T15:47:25.953Z,63.46
2022-12-08T15:49:55.033Z,58.59
2022-12-08T15:52:25.374Z,59.86
2022-12-08T15:54:55.335Z,63.92
2022-12-08T15:58:04.471Z,59.60
2022-12-08T16:05:17.950Z,62.82
2022-12-08T16:09:32.589Z,63.27
2022-12-08T16:12:20.390Z,60.25
2022-12-08T16:17:40.561Z,63.85
2022-12-08T16:20:18.366Z,61.25
2022-12-08T16:23:07.588Z,57.77
2022-12-08T16:26:00.078Z,62.08
2022-12-08T16:28:52.858Z,67.77
2022-12-08T16:31:21.392Z,66.86
2022-12-08T16:33:52.661Z,62.72
2022-12-08T16:36:21.288Z,50.66
2022-12-08T16:38:49.902Z,55.65
2022-12-08T16:41:37.276Z,62.19
2022-12-08T16:44:06.922Z,60.86
2022-12-08T16:46:36.363Z,58.47
2022-12-08T16:49:08.081Z,63.12
2022-12-08T16:51:36.743Z,59.85
2022-12-08T16:54:05.433Z,57.93
2022-12-08T16:56:34.121Z,62.90
2022-12-08T16:59:03.040Z,59.65
2022-12-08T17:01:32.014Z,58.77
2022-12-08T17:04:29.674Z,63.39
2022-12-08T17:06:53.164Z,58.06
2022-12-08T17:09:21.979Z,60.14
2022-12-08T17:11:50.779Z,63.49
2022-12-08T17:14:19.518Z,58.59
2022-12-08T17:16:48.211Z,60.25
2022-12-08T17:19:17.441Z,64.79
2022-12-08T17:21:46.259Z,66.85
2022-12-08T17:24:20.224Z,64.47
2022-12-08T17:26:51.958Z,62.45
2022-12-08T17:29:20.618Z,58.64
2022-12-08T17:31:49.466Z,53.04
2022-12-08T17:34:18.118Z,53.97
2022-12-08T17:36:46.854Z,56.19
2022-12-08T17:39:18.847Z,58.87
2022-12-08T17:41:48.313Z,60.00
2022-12-08T17:44:19.992Z,60.75
2022-12-08T17:46:52.983Z,67.87
2022-12-08T17:49:25.897Z,70.10
2022-12-08T17:51:58.725Z,59.09
2022-12-08T17:54:28.696Z,51.97
2022-12-08T17:56:59.043Z,54.68
2022-12-08T17:59:29.581Z,58.49
2022-12-08T18:01:59.577Z,63.01
2022-12-08T18:04:29.241Z,67.07
2022-12-08T18:07:00.587Z,62.31
2022-12-08T18:09:31.691Z,54.28
2022-12-08T18:12:00.521Z,54.66
2022-12-08T18:14:29.149Z,56.25
2022-12-08T18:17:00.938Z,62.27
2022-12-08T18:19:29.978Z,64.87
2022-12-08T18:21:58.818Z,59.20
2022-12-08T18:24:28.638Z,56.81
2022-12-08T18:26:58.122Z,55.42
2022-12-08T18:29:26.866Z,56.82
2022-12-08T18:31:56.380Z,58.40
2022-12-08T18:34:25.463Z,59.61
2022-12-08T18:36:54.335Z,66.17
2022-12-08T18:39:27.780Z,67.28
2022-12-08T18:41:59.171Z,62.29
2022-12-08T18:44:28.117Z,55.28
2022-12-08T18:46:56.722Z,53.72
2022-12-08T18:49:26.791Z,55.22
2022-12-08T18:51:55.619Z,56.68
2022-12-08T18:54:37.220Z,58.16
2022-12-08T18:57:13.399Z,60.09
2022-12-08T18:59:42.320Z,64.57
2022-12-08T19:02:14.980Z,69.72
2022-12-08T19:04:44.372Z,61.55
2022-12-08T19:07:14.982Z,54.13
2022-12-08T19:09:44.599Z,52.67
2022-12-08T19:12:13.628Z,54.35
2022-12-08T19:14:42.727Z,56.06
2022-12-08T19:17:11.479Z,62.39
2022-12-08T19:19:40.178Z,66.92
2022-12-08T19:22:08.987Z,59.79
2022-12-08T19:24:37.765Z,50.92
2022-12-08T19:27:06.874Z,50.88
2022-12-08T19:29:35.759Z,53.02
2022-12-08T19:32:05.439Z,54.44
2022-12-08T19:34:34.253Z,56.28
2022-12-08T19:37:02.931Z,58.45
2022-12-08T19:39:50.519Z,59.70
2022-12-08T19:42:39.947Z,60.17
2022-12-08T19:45:15.564Z,67.44
2022-12-08T19:47:44.752Z,70.64
2022-12-08T19:50:34.600Z,63.32
2022-12-08T19:53:08.482Z,52.49
2022-12-08T19:55:38.350Z,52.17
2022-12-08T19:58:08.621Z,54.10
2022-12-08T20:00:39.426Z,55.93
2022-12-08T20:03:08.707Z,57.62
2022-12-08T20:05:40.187Z,59.13
2022-12-08T20:08:09.050Z,60.43
2022-12-08T20:10:41.551Z,67.63
2022-12-08T20:13:30.203Z,69.00
2022-12-08T20:15:59.567Z,57.77
2022-12-08T20:18:28.976Z,51.70
2022-12-08T20:20:57.811Z,53.05
2022-12-08T20:23:26.530Z,55.28
2022-12-08T20:25:55.191Z,57.48
2022-12-08T20:28:24.295Z,58.86
2022-12-08T20:30:53.137Z,59.81
2022-12-08T20:33:22.006Z,65.41
2022-12-08T20:36:04.150Z,67.45
2022-12-08T20:38:32.985Z,64.12
2022-12-08T20:41:01.554Z,60.69
2022-12-08T20:43:30.404Z,55.36
2022-12-08T20:45:59.317Z,55.03
2022-12-08T20:48:28.156Z,56.63
2022-12-08T20:50:56.995Z,58.55
2022-12-08T20:53:25.690Z,59.99
2022-12-08T20:55:55.124Z,62.08
2022-12-08T20:58:31.648Z,67.30
2022-12-08T21:01:00.871Z,66.56
2022-12-08T21:03:29.839Z,63.17
2022-12-08T21:05:59.061Z,59.46
2022-12-08T21:08:28.086Z,58.19
2022-12-08T21:10:57.949Z,58.50
2022-12-08T21:13:26.999Z,62.31
2022-12-08T21:15:56.000Z,66.69
2022-12-08T21:18:25.441Z,64.60
2022-12-08T21:21:05.319Z,60.69
2022-12-08T21:23:34.788Z,59.73
2022-12-08T21:26:09.615Z,51.64
2022-12-08T21:28:38.514Z,51.34
2022-12-08T21:31:09.805Z,54.11
2022-12-08T21:33:38.860Z,56.08
2022-12-08T21:36:13.389Z,57.81
2022-12-08T21:38:43.607Z,59.14
2022-12-08T21:41:37.426Z,59.76
2022-12-08T21:44:09.556Z,62.94
2022-12-08T21:46:38.984Z,68.67
2022-12-08T21:49:08.333Z,66.76
2022-12-08T21:51:41.765Z,57.11
2022-12-08T21:54:18.302Z,53.83
2022-12-08T21:56:49.711Z,54.80
2022-12-08T21:59:19.957Z,56.93
2022-12-08T22:01:49.309Z,58.90
2022-12-08T22:04:21.920Z,59.68
2022-12-08T22:06:50.811Z,61.02
2022-12-08T22:09:19.758Z,65.15
2022-12-08T22:11:48.677Z,70.12
2022-12-08T22:14:17.532Z,64.21
2022-12-08T22:16:46.475Z,54.79
2022-12-08T22:19:15.251Z,52.95
2022-12-08T22:21:44.704Z,54.92
2022-12-08T22:24:13.718Z,57.10
2022-12-08T22:26:42.472Z,58.57
2022-12-08T22:29:11.419Z,59.53
2022-12-08T22:31:40.546Z,61.75
2022-12-08T22:34:09.932Z,67.09
2022-12-08T22:36:38.795Z,69.30
2022-12-08T22:39:07.537Z,61.26
2022-12-08T22:41:36.642Z,52.05
2022-12-08T22:44:09.511Z,51.35
2022-12-08T22:46:38.611Z,53.72
2022-12-08T22:49:07.665Z,55.96
2022-12-08T22:51:37.700Z,57.89
2022-12-08T22:54:06.495Z,58.85
2022-12-08T22:56:35.212Z,60.59
2022-12-08T22:59:08.939Z,65.89
2022-12-08T23:01:38.281Z,67.67
2022-12-08T23:04:11.342Z,63.31
2022-12-08T23:06:43.103Z,59.73
2022-12-08T23:09:12.183Z,55.26
2022-12-08T23:11:41.224Z,54.24
2022-12-08T23:14:10.004Z,55.86
2022-12-08T23:16:38.957Z,57.40
2022-12-08T23:19:08.278Z,58.87
2022-12-08T23:21:37.321Z,60.26
2022-12-08T23:24:06.406Z,61.13
2022-12-08T23:26:36.043Z,66.10
2022-12-08T23:30:19.764Z,68.13
2022-12-08T23:32:55.724Z,64.26
2022-12-08T23:35:32.144Z,61.77
2022-12-08T23:38:05.520Z,57.70
2022-12-08T23:40:34.695Z,55.02
2022-12-08T23:43:06.658Z,55.99
2022-12-08T23:45:35.911Z,57.87
2022-12-08T23:48:05.277Z,61.61
2022-12-08T23:50:34.437Z,66.60
2022-12-08T23:53:03.367Z,67.26
2022-12-08T23:58:49.277Z,60.51
